首页
METAR-TAF:

METAR-TAF

机场 :

清邁國際機場

清邁, 泰国

纬度: 18-47N, 经度: 098-59E, 海拔: 312米

当前天气观测

该预报发布于28分钟前的11:00 UTC
风速10节,风向南转西南
温度 31°C
湿度 55%
气压 1003 hPa
能见度10公里或以上
散云层高于3500英尺

METAR: VTCC 191100Z 21010KT 9999 SCT035 31/21 Q1003 NOSIG

时间: 18:28 (11:28 UTC)

预报

该预报发布于6小时和28分钟前的05:00 UTC
预报有效从19日的 06点(UTC)到 20日的 12点(UTC)
风速5节,风向南转西南
能見度: 8000
散云层高于3500英尺
短暂存在
从 19日的 06点(UTC)到 19日的 12点(UTC)
少量云层高于2500英尺, 积雨云.
散云层高于3500英尺
雷暴, 小雨
成为
从 19日的 11点(UTC)到 19日的 13点(UTC)
风速5节,风向西
短暂存在
从 19日的 14点(UTC)到 19日的 18点(UTC)
少量云层高于2500英尺, 积雨云.
散云层高于3500英尺
雷暴, 小雨
成为
从 19日的 17点(UTC)到 19日的 19点(UTC)
风速5节,风向
成为
从 20日的 00点(UTC)到 20日的 02点(UTC)
风速5节,风向

TAF: VTCC 190500Z 1906/2012 20005KT 8000 SCT035 TEMPO 1906/1912 -TSRA FEW025CB SCT035 BECMG 1911/1913 28005KT TEMPO 1914/1918 -TSRA FEW025CB SCT035 BECMG 1917/1919 36005KT BECMG 2000/2002 19005KT

超过4000个机场的气象观测和天气预报(METAR&TAF报告)。

可查询的气象台以黄色和红色小点在地图上表示。

将鼠标移到小点上方,可查看气象台名称。

然后点击查看天气观测和预报。

如需切换地图:点击带黑十字的绿色按钮放大地图;点击带横线的绿色按钮缩小地图;或者点击绿色箭头查看邻近地区的地图。


METAR-TAF: